Time;durP1;ratioP1;P1;durP2;ratioP2;P2;SDS_P1;SDS_P2;PMS_P1;PMS_P2;Temp;Humidity;BMP_temperature;BMP_pressure;BME280_temperature;BME280_humidity;BME280_pressure;Samples;Min_cycle;Max_cycle;Signal;HPM_P1;HPM_P2
2022/07/30 00:01:01;;;;;;;2.05;1.92;;;22.00;56.40;;;;;;5053794;28;20168;-60
2022/07/30 00:03:27;;;;;;;1.83;1.73;;;21.90;56.40;;;;;;5054715;28;20187;-60
2022/07/30 00:05:53;;;;;;;2.55;1.70;;;22.00;56.50;;;;;;5054343;28;20573;-60
2022/07/30 00:08:19;;;;;;;1.88;1.77;;;21.90;56.40;;;;;;5053848;28;20233;-59
2022/07/30 00:10:45;;;;;;;4.68;2.33;;;21.90;56.50;;;;;;5054434;28;20183;-60
2022/07/30 00:13:10;;;;;;;2.22;1.95;;;21.90;56.40;;;;;;5053684;28;20594;-60
2022/07/30 00:15:36;;;;;;;2.40;2.05;;;21.90;56.50;;;;;;5054438;28;20202;-60
2022/07/30 00:18:01;;;;;;;1.95;1.80;;;21.90;56.50;;;;;;5054140;28;20520;-61
2022/07/30 00:20:27;;;;;;;2.28;2.08;;;21.90;56.60;;;;;;5053745;28;20175;-61
2022/07/30 00:22:52;;;;;;;1.70;1.60;;;22.00;56.50;;;;;;5054218;28;20183;-61
2022/07/30 00:25:18;;;;;;;2.20;1.88;;;21.90;56.50;;;;;;5054230;28;20171;-61
2022/07/30 00:27:44;;;;;;;2.55;2.10;;;21.90;56.60;;;;;;5053303;28;20195;-60
2022/07/30 00:30:10;;;;;;;2.55;2.20;;;21.90;56.70;;;;;;5052930;28;20739;-60
2022/07/30 00:32:36;;;;;;;2.25;2.05;;;21.90;56.70;;;;;;5053984;28;20230;-60
2022/07/30 00:35:01;;;;;;;2.53;2.00;;;21.90;56.70;;;;;;5053209;28;20662;-60
2022/07/30 00:37:27;;;;;;;2.13;1.92;;;21.90;56.80;;;;;;5053976;28;20313;-60
2022/07/30 00:39:52;;;;;;;2.55;1.90;;;21.90;56.70;;;;;;5053807;28;20261;-60
2022/07/30 00:42:24;;;;;;;2.60;2.00;;;21.90;56.80;;;;;;5053197;28;20568;-60
2022/07/30 00:44:51;;;;;;;2.50;1.98;;;21.90;56.80;;;;;;5053615;28;20175;-60
2022/07/30 00:47:16;;;;;;;2.85;2.13;;;21.90;56.90;;;;;;5053710;28;20540;-60
2022/07/30 00:49:42;;;;;;;2.38;1.70;;;21.90;56.80;;;;;;5053071;28;20183;-59
2022/07/30 00:52:07;;;;;;;3.53;2.25;;;21.90;56.80;;;;;;5053513;28;20606;-60
2022/07/30 00:54:33;;;;;;;3.17;2.05;;;21.90;57.60;;;;;;5053742;28;20199;-62
2022/07/30 00:56:58;;;;;;;2.08;1.90;;;21.90;56.90;;;;;;5052667;28;20264;-62
2022/07/30 00:59:26;;;;;;;3.10;2.28;;;21.90;57.00;;;;;;5053469;28;20175;-63
2022/07/30 01:01:52;;;;;;;2.42;2.05;;;21.90;57.00;;;;;;5053258;28;20534;-62
2022/07/30 01:04:17;;;;;;;4.20;2.15;;;21.90;56.90;;;;;;5052820;28;20201;-63
2022/07/30 01:06:43;;;;;;;2.05;1.75;;;21.80;57.00;;;;;;5053349;28;20171;-62
2022/07/30 01:09:08;;;;;;;1.88;1.77;;;21.90;57.00;;;;;;5053579;28;20179;-62
2022/07/30 01:11:38;;;;;;;2.83;2.30;;;21.80;57.00;;;;;;5052692;28;20168;-62
2022/07/30 01:14:05;;;;;;;2.85;2.65;;;21.80;57.00;;;;;;5053489;28;20218;-63
2022/07/30 01:16:31;;;;;;;2.85;2.55;;;21.80;56.90;;;;;;5052731;28;20175;-63
2022/07/30 01:21:42;;;;;;;3.17;2.22;;;21.90;57.10;;;;;;5024141;28;20336;-63
2022/07/30 01:24:35;;;;;;;2.60;2.03;;;21.80;57.10;;;;;;5018444;28;20253;-63
2022/07/30 01:27:01;;;;;;;2.10;1.90;;;21.80;57.10;;;;;;5022897;28;20269;-63
2022/07/30 01:29:27;;;;;;;2.50;2.20;;;21.80;57.20;;;;;;5053248;28;20270;-62
2022/07/30 01:31:54;;;;;;;2.65;2.45;;;21.80;57.20;;;;;;5034253;28;20219;-62
2022/07/30 01:34:20;;;;;;;1.95;1.85;;;21.80;57.20;;;;;;5052687;28;20214;-62
2022/07/30 01:36:45;;;;;;;2.50;2.10;;;21.80;57.20;;;;;;5034911;28;20254;-63
2022/07/30 01:39:11;;;;;;;2.47;2.28;;;21.80;57.30;;;;;;5034599;28;20608;-63
2022/07/30 01:41:37;;;;;;;2.35;2.13;;;21.80;57.40;;;;;;5035109;28;20175;-63
2022/07/30 01:44:03;;;;;;;2.45;2.25;;;21.80;57.50;;;;;;5035294;28;20224;-63
2022/07/30 01:46:28;;;;;;;2.95;2.65;;;21.80;57.40;;;;;;5052081;28;20254;-62
2022/07/30 01:48:54;;;;;;;2.80;2.30;;;21.80;57.50;;;;;;5035102;28;20190;-62
2022/07/30 01:51:19;;;;;;;2.38;2.13;;;21.80;57.40;;;;;;5034885;28;20178;-62
2022/07/30 01:53:45;;;;;;;2.55;2.35;;;21.80;57.40;;;;;;5034146;28;20218;-62
2022/07/30 01:56:11;;;;;;;2.65;2.45;;;21.80;58.00;;;;;;5018545;28;20198;-62
2022/07/30 01:58:37;;;;;;;2.88;2.67;;;21.80;57.40;;;;;;5034933;28;20641;-62
2022/07/30 02:01:03;;;;;;;3.40;2.33;;;21.80;57.50;;;;;;5034581;28;20508;-62
2022/07/30 02:03:28;;;;;;;2.72;2.53;;;21.80;57.50;;;;;;5018676;28;20186;-62
2022/07/30 02:06:25;;;;;;;2.42;2.22;;;21.80;57.40;;;;;;5033853;28;20177;-63
2022/07/30 02:08:55;;;;;;;3.97;2.05;;;21.80;57.50;;;;;;5015219;28;20183;-62
2022/07/30 02:14:07;;;;;;;2.28;2.17;;;21.80;57.80;;;;;;5036745;28;20366;-63
2022/07/30 02:16:36;;;;;;;3.38;2.95;;;21.80;57.90;;;;;;5034959;28;20179;-63
2022/07/30 02:19:05;;;;;;;2.42;2.22;;;21.70;58.00;;;;;;5034628;28;20175;-63
2022/07/30 02:21:33;;;;;;;2.67;2.38;;;21.70;58.10;;;;;;5034149;28;20637;-63
2022/07/30 02:23:58;;;;;;;2.50;2.28;;;21.80;58.10;;;;;;5052438;28;20183;-63
2022/07/30 02:26:24;;;;;;;2.60;2.40;;;21.80;58.00;;;;;;5018140;28;20179;-63
2022/07/30 02:28:51;;;;;;;2.15;2.05;;;21.70;57.90;;;;;;5017300;28;20172;-62
2022/07/30 02:31:22;;;;;;;2.30;2.10;;;21.80;57.90;;;;;;5052276;28;20249;-62
2022/07/30 02:33:48;;;;;;;2.38;1.88;;;21.80;57.90;;;;;;5034210;28;20720;-62
2022/07/30 02:36:14;;;;;;;2.13;2.00;;;21.70;57.80;;;;;;5052063;28;20186;-62
2022/07/30 02:38:39;;;;;;;2.58;2.38;;;21.70;57.80;;;;;;5052076;28;20539;-63
2022/07/30 02:41:06;;;;;;;2.50;2.30;;;21.80;58.00;;;;;;5017484;28;20617;-63
2022/07/30 02:43:31;;;;;;;2.60;2.40;;;21.80;58.00;;;;;;5034403;28;20224;-63
2022/07/30 02:45:57;;;;;;;2.40;2.20;;;21.70;57.90;;;;;;5017879;28;20175;-62
2022/07/30 02:48:22;;;;;;;2.40;2.20;;;21.70;57.90;;;;;;5033943;28;20182;-62
2022/07/30 02:50:49;;;;;;;2.40;2.22;;;21.70;57.90;;;;;;5018068;28;20172;-62
2022/07/30 02:53:15;;;;;;;2.85;2.40;;;21.70;58.10;;;;;;5020024;28;20206;-62
2022/07/30 02:55:40;;;;;;;2.97;2.65;;;21.70;58.20;;;;;;5020601;28;20206;-62
2022/07/30 02:58:06;;;;;;;2.50;2.30;;;21.70;58.10;;;;;;5055902;28;20171;-63
2022/07/30 03:00:32;;;;;;;3.35;3.05;;;21.70;58.00;;;;;;5038063;28;20179;-63
2022/07/30 03:02:57;;;;;;;2.20;2.10;;;21.70;58.10;;;;;;5037346;28;20660;-62
2022/07/30 03:05:24;;;;;;;2.10;2.00;;;21.70;58.20;;;;;;5037825;28;20258;-63
2022/07/30 03:07:50;;;;;;;2.50;2.30;;;21.70;58.10;;;;;;5055497;28;20622;-63
2022/07/30 03:10:16;;;;;;;2.53;2.33;;;21.70;58.10;;;;;;5037066;28;20262;-63
2022/07/30 03:12:44;;;;;;;2.45;2.25;;;21.70;58.60;;;;;;5021056;28;20266;-63
2022/07/30 03:15:09;;;;;;;2.75;2.47;;;21.70;58.40;;;;;;5055597;28;20218;-63
2022/07/30 03:17:41;;;;;;;2.30;2.10;;;21.70;58.30;;;;;;5036696;28;20195;-63
2022/07/30 03:20:09;;;;;;;2.38;2.17;;;21.70;58.20;;;;;;5021523;28;20694;-63
2022/07/30 03:22:38;;;;;;;2.45;2.08;;;21.70;58.20;;;;;;5021507;28;20177;-63
2022/07/30 03:25:04;;;;;;;2.65;2.35;;;21.70;58.20;;;;;;5036769;28;20179;-63
2022/07/30 03:27:30;;;;;;;2.67;2.47;;;21.70;58.20;;;;;;5037474;28;20644;-63
2022/07/30 03:29:55;;;;;;;2.50;2.40;;;21.70;58.30;;;;;;5037396;28;20186;-63
2022/07/30 03:32:21;;;;;;;2.63;2.42;;;21.70;58.20;;;;;;5036654;28;20223;-62
2022/07/30 03:34:47;;;;;;;2.63;2.42;;;21.70;58.20;;;;;;5020755;28;20223;-62
2022/07/30 03:37:12;;;;;;;2.65;1.80;;;21.70;58.20;;;;;;5020036;28;20171;-63
2022/07/30 03:39:38;;;;;;;2.47;2.28;;;21.70;58.20;;;;;;5054740;28;20205;-63
2022/07/30 03:42:03;;;;;;;2.58;2.38;;;21.70;58.20;;;;;;5055280;28;20182;-60
2022/07/30 03:44:29;;;;;;;2.17;2.00;;;21.70;58.20;;;;;;5036370;28;20183;-60
2022/07/30 03:46:55;;;;;;;2.35;2.15;;;21.70;58.20;;;;;;5037145;28;20167;-60
2022/07/30 03:49:21;;;;;;;2.45;2.25;;;21.60;58.20;;;;;;5037172;28;20171;-60
2022/07/30 03:51:46;;;;;;;2.13;1.95;;;21.70;58.20;;;;;;5036300;28;20167;-60
2022/07/30 03:54:12;;;;;;;2.75;2.40;;;21.70;58.20;;;;;;5036925;28;20215;-60
2022/07/30 03:56:37;;;;;;;3.10;2.80;;;21.70;58.80;;;;;;5037184;28;20629;-60
2022/07/30 03:59:03;;;;;;;2.45;2.25;;;21.70;58.20;;;;;;5053863;28;20179;-60
2022/07/30 04:01:29;;;;;;;3.38;2.42;;;21.70;58.30;;;;;;5054865;28;20178;-60
2022/07/30 04:03:54;;;;;;;3.05;2.85;;;21.60;58.50;;;;;;5020293;28;20533;-60
2022/07/30 04:06:20;;;;;;;3.72;2.88;;;21.60;58.60;;;;;;5036195;28;20167;-60
2022/07/30 04:08:46;;;;;;;3.38;2.80;;;21.70;58.80;;;;;;5054167;28;20296;-60
2022/07/30 04:11:11;;;;;;;2.70;2.50;;;21.60;58.80;;;;;;5054689;28;20250;-60
2022/07/30 04:13:37;;;;;;;2.67;2.47;;;21.70;58.80;;;;;;5053787;28;20603;-60
2022/07/30 04:16:53;;;;;;;2.30;2.15;;;21.60;58.70;;;;;;5054441;28;20702;-60
2022/07/30 04:19:24;;;;;;;3.15;2.70;;;21.60;58.50;;;;;;4953800;29;20186;-61
2022/07/30 04:21:50;;;;;;;2.65;2.45;;;21.60;58.60;;;;;;5047626;28;20190;-61
2022/07/30 04:24:15;;;;;;;2.67;2.47;;;21.60;58.50;;;;;;5036521;28;20176;-63
2022/07/30 04:26:41;;;;;;;2.40;2.30;;;21.60;58.40;;;;;;5035725;28;20520;-63
2022/07/30 04:29:08;;;;;;;2.47;2.28;;;21.60;58.40;;;;;;5036314;28;20170;-62
2022/07/30 04:31:34;;;;;;;2.55;2.35;;;21.70;58.40;;;;;;5053683;28;20238;-62
2022/07/30 04:34:03;;;;;;;2.40;2.20;;;21.70;58.40;;;;;;5035518;28;20223;-62
2022/07/30 04:36:29;;;;;;;2.83;2.47;;;21.70;58.30;;;;;;5053927;28;20182;-62
2022/07/30 04:38:56;;;;;;;2.38;2.22;;;21.70;58.20;;;;;;5053867;28;20183;-61
2022/07/30 04:41:21;;;;;;;2.70;2.50;;;21.70;58.20;;;;;;5053302;28;20183;-60
2022/07/30 04:43:47;;;;;;;2.72;2.47;;;21.70;58.30;;;;;;5053658;28;20179;-61
2022/07/30 04:46:13;;;;;;;2.70;2.50;;;21.70;58.20;;;;;;5053734;28;20175;-60
2022/07/30 04:48:38;;;;;;;2.42;2.22;;;21.60;58.20;;;;;;5052909;28;20179;-60
2022/07/30 04:51:05;;;;;;;2.75;2.55;;;21.60;58.20;;;;;;5053987;28;20202;-60
2022/07/30 04:53:30;;;;;;;2.80;2.60;;;21.70;58.20;;;;;;5036186;28;20256;-60
2022/07/30 04:55:56;;;;;;;2.60;2.40;;;21.70;58.20;;;;;;5018548;28;20171;-60
2022/07/30 04:58:22;;;;;;;2.33;2.20;;;21.70;58.20;;;;;;5035897;28;20225;-60
2022/07/30 05:00:47;;;;;;;2.70;2.50;;;21.70;58.20;;;;;;5035696;28;20199;-60
2022/07/30 05:03:13;;;;;;;2.88;2.40;;;21.70;58.20;;;;;;5035245;28;20209;-60
2022/07/30 05:05:39;;;;;;;2.70;2.50;;;21.70;58.20;;;;;;5035709;28;20242;-60
2022/07/30 05:08:05;;;;;;;2.15;2.00;;;21.70;58.10;;;;;;5035722;28;20175;-61
2022/07/30 05:10:31;;;;;;;2.42;2.20;;;21.70;58.20;;;;;;5018568;28;20538;-60
2022/07/30 05:12:56;;;;;;;2.22;2.10;;;21.70;58.10;;;;;;5035639;28;20202;-60
2022/07/30 05:15:22;;;;;;;2.80;2.60;;;21.80;58.20;;;;;;5052624;28;20309;-60
2022/07/30 05:17:47;;;;;;;2.75;2.38;;;21.70;58.00;;;;;;5052190;28;20183;-61
2022/07/30 05:20:13;;;;;;;3.00;2.70;;;21.70;58.00;;;;;;5053104;28;20186;-61
2022/07/30 05:22:38;;;;;;;2.67;2.47;;;21.70;58.10;;;;;;5052228;28;20171;-61
2022/07/30 05:25:04;;;;;;;2.58;2.30;;;21.70;58.10;;;;;;5052922;28;20171;-61
2022/07/30 05:27:30;;;;;;;2.55;2.35;;;21.70;58.20;;;;;;5052938;28;20553;-60
2022/07/30 05:29:55;;;;;;;2.70;2.50;;;21.70;58.20;;;;;;5052103;28;20175;-60
2022/07/30 05:32:21;;;;;;;2.33;2.13;;;21.70;58.20;;;;;;5052726;28;20226;-60
2022/07/30 05:34:47;;;;;;;4.30;2.75;;;21.70;58.20;;;;;;5052897;28;20685;-59
2022/07/30 05:37:12;;;;;;;2.53;2.33;;;21.70;58.10;;;;;;5052106;28;20622;-60
2022/07/30 05:39:38;;;;;;;2.88;2.58;;;21.70;58.20;;;;;;5052400;28;20179;-60
2022/07/30 05:42:03;;;;;;;3.92;2.63;;;21.80;58.30;;;;;;5052964;28;20173;-61
2022/07/30 05:44:29;;;;;;;2.90;2.70;;;21.70;58.20;;;;;;5052222;28;20625;-60
2022/07/30 05:46:54;;;;;;;2.60;2.40;;;21.70;58.20;;;;;;5052859;28;20190;-60
2022/07/30 05:49:20;;;;;;;2.75;2.55;;;21.70;58.30;;;;;;5052509;28;20538;-61
2022/07/30 05:51:45;;;;;;;2.70;2.30;;;21.80;58.40;;;;;;5051994;28;20634;-61
2022/07/30 05:54:11;;;;;;;2.65;2.53;;;21.80;58.10;;;;;;5052577;28;20547;-61
2022/07/30 05:56:36;;;;;;;2.58;2.38;;;21.80;58.10;;;;;;5052492;28;20167;-62
2022/07/30 05:59:02;;;;;;;2.85;2.50;;;21.80;58.30;;;;;;5051813;28;20179;-62
2022/07/30 06:01:27;;;;;;;2.80;2.45;;;21.80;58.20;;;;;;5052696;28;20539;-61
2022/07/30 06:03:53;;;;;;;3.38;2.67;;;21.90;58.40;;;;;;5052600;28;20213;-62
2022/07/30 06:06:18;;;;;;;4.43;2.75;;;21.80;58.40;;;;;;5051875;28;20254;-62
2022/07/30 06:08:44;;;;;;;2.58;2.35;;;21.80;58.20;;;;;;5052470;28;20262;-62
2022/07/30 06:11:09;;;;;;;2.50;2.30;;;21.80;58.20;;;;;;5052467;28;20249;-62
2022/07/30 06:13:36;;;;;;;2.83;2.47;;;21.90;58.20;;;;;;5051681;28;20305;-62
2022/07/30 06:16:01;;;;;;;2.25;2.15;;;21.80;58.20;;;;;;5052301;28;20681;-62
2022/07/30 06:18:27;;;;;;;2.45;2.25;;;21.80;58.10;;;;;;5052524;28;20265;-63
2022/07/30 06:20:53;;;;;;;2.83;2.50;;;21.90;58.20;;;;;;5051671;28;20171;-63
2022/07/30 06:23:19;;;;;;;2.60;2.40;;;21.90;58.20;;;;;;5052613;28;20302;-65
2022/07/30 06:25:46;;;;;;;2.28;2.08;;;21.90;58.10;;;;;;5052192;28;20175;-65
2022/07/30 06:28:13;;;;;;;3.08;2.72;;;21.90;58.10;;;;;;5053400;28;20183;-65
2022/07/30 06:30:39;;;;;;;2.55;2.35;;;21.90;58.00;;;;;;5055893;28;20179;-64
2022/07/30 06:33:05;;;;;;;2.55;2.35;;;21.90;58.10;;;;;;5056011;28;20187;-64
2022/07/30 06:35:30;;;;;;;2.45;2.25;;;21.90;58.10;;;;;;5056257;28;20221;-64
2022/07/30 06:37:56;;;;;;;2.53;2.33;;;21.90;58.00;;;;;;5056120;28;20163;-65
2022/07/30 06:40:21;;;;;;;2.80;2.42;;;21.90;58.00;;;;;;5055622;28;20263;-65
2022/07/30 06:42:47;;;;;;;3.03;2.40;;;21.90;58.00;;;;;;5056069;28;20178;-65
2022/07/30 06:45:12;;;;;;;2.40;2.30;;;21.90;58.00;;;;;;5055937;28;20179;-65
2022/07/30 06:47:38;;;;;;;2.42;2.17;;;21.90;58.00;;;;;;5055322;28;20229;-64
2022/07/30 06:50:04;;;;;;;2.90;2.30;;;21.90;58.10;;;;;;5056300;28;20173;-64
2022/07/30 06:52:29;;;;;;;2.50;2.30;;;21.90;58.30;;;;;;5055869;28;20178;-64
2022/07/30 06:54:55;;;;;;;3.40;2.22;;;21.90;58.10;;;;;;5054921;28;20765;-64
2022/07/30 06:57:20;;;;;;;4.93;2.70;;;21.90;58.10;;;;;;5055835;28;20171;-64
2022/07/30 06:59:46;;;;;;;3.38;2.60;;;22.00;58.20;;;;;;5055633;28;20175;-64
2022/07/30 07:02:11;;;;;;;3.42;2.33;;;22.00;58.30;;;;;;5055181;28;20606;-64
2022/07/30 07:04:37;;;;;;;2.83;2.47;;;22.00;58.00;;;;;;5056017;28;20230;-63
2022/07/30 07:07:02;;;;;;;2.55;2.20;;;22.00;58.20;;;;;;5055896;28;20218;-64
2022/07/30 07:09:28;;;;;;;4.03;2.50;;;22.10;58.40;;;;;;5054879;28;20175;-64
2022/07/30 07:11:53;;;;;;;3.92;2.35;;;22.10;58.30;;;;;;5055414;28;20198;-64
2022/07/30 07:14:19;;;;;;;4.20;2.67;;;22.10;58.20;;;;;;5055481;28;20814;-64
2022/07/30 07:16:44;;;;;;;2.40;2.08;;;22.10;58.30;;;;;;5054853;28;20163;-65
2022/07/30 07:19:10;;;;;;;4.10;2.13;;;22.10;58.30;;;;;;5055615;28;20178;-65
2022/07/30 07:21:35;;;;;;;2.95;2.42;;;22.10;58.20;;;;;;5055451;28;20567;-65
2022/07/30 07:24:01;;;;;;;3.50;2.50;;;22.00;58.30;;;;;;5054437;28;20654;-64
2022/07/30 07:26:28;;;;;;;4.63;2.53;;;22.10;58.30;;;;;;5055275;28;20237;-64
2022/07/30 07:28:53;;;;;;;3.30;2.40;;;22.10;58.40;;;;;;5055126;28;20179;-64
2022/07/30 07:31:18;;;;;;;4.40;2.67;;;22.10;58.40;;;;;;5054298;28;20226;-64
2022/07/30 07:33:45;;;;;;;5.18;2.10;;;22.10;58.40;;;;;;5055005;28;20673;-64
2022/07/30 07:36:11;;;;;;;4.03;2.65;;;22.10;58.40;;;;;;5055212;28;20257;-64
2022/07/30 07:38:36;;;;;;;4.38;2.28;;;22.10;58.40;;;;;;5053940;28;20584;-64
2022/07/30 07:41:02;;;;;;;3.03;2.67;;;22.10;59.00;;;;;;5054892;28;20818;-64
2022/07/30 07:43:28;;;;;;;3.45;2.10;;;22.20;58.40;;;;;;5054171;28;20236;-64
2022/07/30 07:45:53;;;;;;;4.57;2.30;;;22.20;58.40;;;;;;5055045;28;20216;-64
2022/07/30 07:48:19;;;;;;;2.65;2.13;;;22.20;58.30;;;;;;5055015;28;20182;-63
2022/07/30 07:50:44;;;;;;;2.60;2.40;;;22.20;58.30;;;;;;5053944;28;20186;-63
2022/07/30 07:53:10;;;;;;;4.22;2.05;;;22.20;58.30;;;;;;5054913;28;20551;-64
2022/07/30 07:55:36;;;;;;;2.17;1.98;;;22.20;58.30;;;;;;5054790;28;20191;-64
2022/07/30 07:58:02;;;;;;;2.55;2.00;;;22.30;58.30;;;;;;5053829;28;20178;-64
2022/07/30 08:00:27;;;;;;;2.25;1.90;;;22.20;58.20;;;;;;5054814;28;20624;-64
2022/07/30 08:02:53;;;;;;;2.85;2.22;;;22.30;58.20;;;;;;5054635;28;20179;-64
2022/07/30 08:05:18;;;;;;;2.67;2.40;;;22.30;58.20;;;;;;5053885;28;20266;-63
2022/07/30 08:07:44;;;;;;;3.42;2.03;;;22.30;58.20;;;;;;5054479;28;20249;-63
2022/07/30 08:10:12;;;;;;;4.30;2.58;;;22.30;58.10;;;;;;5054468;28;20199;-62
2022/07/30 08:12:38;;;;;;;3.20;2.03;;;22.30;58.10;;;;;;5053841;28;20254;-63
2022/07/30 08:15:04;;;;;;;2.28;2.10;;;22.30;58.20;;;;;;5054329;28;20301;-64
2022/07/30 08:17:30;;;;;;;4.63;2.60;;;22.40;58.20;;;;;;5054395;28;20179;-63
2022/07/30 08:19:59;;;;;;;3.08;2.13;;;22.40;58.20;;;;;;5053393;28;20530;-63
2022/07/30 08:22:25;;;;;;;4.20;1.88;;;22.40;58.20;;;;;;5054311;28;20203;-63
2022/07/30 08:24:50;;;;;;;2.38;2.00;;;22.40;58.20;;;;;;5054114;28;20206;-62
2022/07/30 08:27:16;;;;;;;3.38;2.00;;;22.40;58.30;;;;;;5053463;28;20214;-64
2022/07/30 08:29:44;;;;;;;2.60;2.30;;;22.40;58.20;;;;;;5053885;28;20263;-64
2022/07/30 08:32:09;;;;;;;4.57;2.33;;;22.40;58.20;;;;;;5054073;28;20219;-63
2022/07/30 08:34:35;;;;;;;3.35;2.00;;;22.40;58.20;;;;;;5053522;28;20622;-64
2022/07/30 08:37:00;;;;;;;2.47;1.92;;;22.50;58.20;;;;;;5053944;28;20744;-64
2022/07/30 08:39:26;;;;;;;4.38;2.38;;;22.50;57.90;;;;;;5053873;28;20190;-64
2022/07/30 08:41:51;;;;;;;4.00;2.50;;;22.50;57.60;;;;;;5052968;28;20179;-65
2022/07/30 08:44:18;;;;;;;3.90;2.13;;;22.50;57.70;;;;;;5036349;28;20201;-64
2022/07/30 08:46:44;;;;;;;4.20;2.25;;;22.50;57.70;;;;;;5053005;28;20533;-63
2022/07/30 08:49:10;;;;;;;3.78;2.08;;;22.50;57.50;;;;;;5036240;28;20264;-63
2022/07/30 08:51:36;;;;;;;5.15;2.22;;;22.60;57.50;;;;;;5052855;28;20171;-62
2022/07/30 08:54:02;;;;;;;3.38;2.13;;;22.60;57.50;;;;;;5052857;28;20218;-64
2022/07/30 08:56:28;;;;;;;4.28;2.10;;;22.60;57.40;;;;;;5053712;28;20217;-64
2022/07/30 08:58:53;;;;;;;4.68;2.30;;;22.60;57.40;;;;;;5035960;28;20179;-64
2022/07/30 09:01:19;;;;;;;4.95;2.42;;;22.60;56.90;;;;;;5052938;28;20622;-64
2022/07/30 09:03:44;;;;;;;3.80;2.10;;;22.60;56.80;;;;;;5019131;28;20673;-64
2022/07/30 09:06:10;;;;;;;3.38;2.20;;;22.70;56.90;;;;;;5053327;28;20179;-63
2022/07/30 09:08:35;;;;;;;4.82;2.30;;;22.70;56.80;;;;;;5052887;28;20258;-64
2022/07/30 09:11:01;;;;;;;5.28;2.30;;;22.70;56.70;;;;;;5053118;28;20171;-64
2022/07/30 09:13:35;;;;;;;3.85;2.00;;;22.70;56.60;;;;;;5053137;28;20626;-65
2022/07/30 09:16:01;;;;;;;5.75;2.08;;;22.70;56.60;;;;;;5052634;28;20190;-65
2022/07/30 09:18:30;;;;;;;4.05;2.08;;;22.70;56.40;;;;;;5053400;28;20179;-65
2022/07/30 09:20:58;;;;;;;4.20;1.80;;;22.80;56.30;;;;;;5053123;28;20221;-65
2022/07/30 09:23:23;;;;;;;3.22;1.83;;;22.80;56.30;;;;;;5052292;28;20176;-64
2022/07/30 09:25:49;;;;;;;4.43;2.20;;;22.70;56.00;;;;;;5035385;28;20217;-64
2022/07/30 09:28:14;;;;;;;2.88;2.10;;;22.80;55.80;;;;;;5053308;28;20258;-63
2022/07/30 09:30:53;;;;;;;3.80;2.30;;;22.80;55.80;;;;;;5052266;28;20175;-64
2022/07/30 09:33:47;;;;;;;4.20;2.25;;;22.80;55.80;;;;;;5052951;28;20228;-63
2022/07/30 09:36:15;;;;;;;3.60;1.73;;;22.80;55.70;;;;;;5052391;28;20279;-64
2022/07/30 09:38:51;;;;;;;2.53;1.92;;;22.80;55.40;;;;;;5052890;28;20184;-64
2022/07/30 09:41:21;;;;;;;3.63;2.00;;;22.80;55.30;;;;;;5053006;28;20175;-64
2022/07/30 09:43:47;;;;;;;2.15;1.90;;;22.80;54.40;;;;;;5054890;28;20221;-65
2022/07/30 09:46:13;;;;;;;3.80;1.95;;;22.80;54.00;;;;;;5055936;28;20598;-64
2022/07/30 09:48:39;;;;;;;3.65;1.90;;;22.80;54.40;;;;;;5052664;28;20202;-62
2022/07/30 09:51:05;;;;;;;5.13;2.40;;;22.80;54.50;;;;;;5052207;28;20199;-62
2022/07/30 09:53:31;;;;;;;3.72;2.00;;;22.90;54.70;;;;;;5052636;28;20254;-62
2022/07/30 09:55:58;;;;;;;1.90;1.80;;;22.90;54.70;;;;;;5052557;28;20207;-63
2022/07/30 09:58:23;;;;;;;4.30;2.50;;;22.90;54.80;;;;;;5034364;28;20277;-63
2022/07/30 10:00:48;;;;;;;2.63;1.70;;;23.00;54.80;;;;;;5034559;28;20649;-63
2022/07/30 10:03:19;;;;;;;3.10;1.80;;;23.00;54.80;;;;;;5018006;28;20669;-64
2022/07/30 10:05:55;;;;;;;4.60;1.90;;;23.00;54.70;;;;;;5051832;28;20190;-62
2022/07/30 10:08:37;;;;;;;3.13;2.20;;;23.00;54.60;;;;;;5052654;28;20229;-62
2022/07/30 10:11:02;;;;;;;4.43;1.75;;;23.00;54.60;;;;;;5036425;28;20186;-62
2022/07/30 10:13:28;;;;;;;3.63;2.22;;;23.00;54.60;;;;;;5052259;28;20175;-62
2022/07/30 10:15:53;;;;;;;2.30;1.55;;;23.10;54.50;;;;;;5052337;28;20529;-62
2022/07/30 10:18:19;;;;;;;3.80;2.00;;;23.10;54.60;;;;;;5034077;28;20739;-65
2022/07/30 10:20:44;;;;;;;4.15;1.90;;;23.10;54.60;;;;;;5034684;28;20551;-64
2022/07/30 10:23:10;;;;;;;3.67;1.90;;;23.10;54.60;;;;;;5034602;28;20175;-65
2022/07/30 10:25:36;;;;;;;2.03;1.70;;;23.10;54.50;;;;;;5033880;28;20634;-64
2022/07/30 10:28:02;;;;;;;1.98;1.70;;;23.10;54.60;;;;;;5052143;28;20269;-65
2022/07/30 10:30:27;;;;;;;3.03;1.90;;;23.10;54.60;;;;;;5034503;28;20673;-64
2022/07/30 10:32:55;;;;;;;2.30;1.98;;;23.10;54.60;;;;;;5033647;28;20280;-63
2022/07/30 10:35:20;;;;;;;3.95;2.10;;;23.10;54.60;;;;;;5034859;28;20229;-64
2022/07/30 10:37:48;;;;;;;4.00;2.03;;;23.10;54.50;;;;;;5034384;28;20175;-64
2022/07/30 10:40:37;;;;;;;2.30;1.80;;;23.20;54.60;;;;;;5033891;28;20676;-65
2022/07/30 10:43:22;;;;;;;2.42;1.70;;;23.20;54.40;;;;;;5052288;28;20186;-64
2022/07/30 10:46:18;;;;;;;3.42;1.70;;;23.20;54.30;;;;;;5018969;28;20183;-64
2022/07/30 10:48:43;;;;;;;3.13;1.80;;;23.30;54.10;;;;;;5034244;28;20187;-63
2022/07/30 10:51:09;;;;;;;2.53;1.75;;;23.30;54.10;;;;;;5034468;28;20229;-63
2022/07/30 10:53:35;;;;;;;2.10;1.90;;;23.30;53.80;;;;;;5033506;28;20182;-63
2022/07/30 10:56:11;;;;;;;5.22;2.40;;;23.30;53.40;;;;;;5053130;28;20533;-63
2022/07/30 10:59:01;;;;;;;3.80;1.80;;;23.30;53.10;;;;;;5052060;28;20710;-64
2022/07/30 11:01:46;;;;;;;4.63;1.92;;;23.30;53.00;;;;;;5051179;28;20547;-64
2022/07/30 11:04:27;;;;;;;4.43;1.92;;;23.30;53.20;;;;;;5051977;28;20171;-65
2022/07/30 11:07:28;;;;;;;6.95;2.25;;;23.30;53.10;;;;;;5051954;28;20186;-66
2022/07/30 11:09:55;;;;;;;4.05;2.03;;;23.30;53.30;;;;;;5052026;28;20194;-66
2022/07/30 11:12:40;;;;;;;2.97;2.00;;;23.40;53.40;;;;;;5052078;28;20184;-66
2022/07/30 11:15:09;;;;;;;2.03;1.60;;;23.40;53.30;;;;;;5054122;28;20220;-67
2022/07/30 11:18:01;;;;;;;2.65;1.85;;;23.40;53.40;;;;;;5038183;28;20664;-66
2022/07/30 11:20:27;;;;;;;3.03;1.55;;;23.50;53.50;;;;;;5055656;28;20179;-67
2022/07/30 11:22:53;;;;;;;4.30;1.60;;;23.50;53.70;;;;;;5054684;28;20252;-67
2022/07/30 11:25:27;;;;;;;3.80;2.25;;;23.50;53.70;;;;;;5055423;28;20171;-67
2022/07/30 11:27:53;;;;;;;2.50;1.52;;;23.50;53.70;;;;;;5055314;28;20182;-66
2022/07/30 11:30:21;;;;;;;4.53;1.85;;;23.50;53.80;;;;;;5054442;28;20217;-67
2022/07/30 11:33:12;;;;;;;4.47;1.60;;;23.60;53.40;;;;;;5054971;28;20227;-66
2022/07/30 11:35:38;;;;;;;4.72;1.67;;;23.50;53.40;;;;;;5053709;28;20237;-66
2022/07/30 11:38:10;;;;;;;3.97;1.73;;;23.50;53.30;;;;;;5036234;28;20414;-66
2022/07/30 11:40:36;;;;;;;2.85;1.77;;;23.60;53.20;;;;;;5055166;28;20240;-66
2022/07/30 11:43:40;;;;;;;4.30;2.03;;;23.60;53.10;;;;;;5053772;28;20167;-67
2022/07/30 11:46:22;;;;;;;6.27;2.00;;;23.50;53.00;;;;;;4954138;29;20491;-66
2022/07/30 11:48:54;;;;;;;2.35;1.63;;;23.60;53.00;;;;;;4954778;29;20178;-65
2022/07/30 11:51:20;;;;;;;2.30;2.00;;;23.60;53.00;;;;;;5016033;28;20184;-65
2022/07/30 11:53:59;;;;;;;2.05;1.50;;;23.60;53.00;;;;;;5054719;28;20289;-66
2022/07/30 11:56:25;;;;;;;2.67;2.00;;;23.60;53.00;;;;;;5054932;28;20175;-66
2022/07/30 11:58:50;;;;;;;3.97;1.90;;;23.60;52.80;;;;;;5053981;28;20171;-66
2022/07/30 12:01:16;;;;;;;3.58;1.77;;;23.60;53.00;;;;;;5020310;28;20183;-67
2022/07/30 12:03:47;;;;;;;6.13;2.33;;;23.70;53.00;;;;;;5053609;28;20649;-69
2022/07/30 12:06:16;;;;;;;5.75;1.70;;;23.60;53.00;;;;;;5054824;28;20303;-69
2022/07/30 12:08:43;;;;;;;3.80;1.50;;;23.60;52.80;;;;;;5054552;28;20182;-69
2022/07/30 12:11:09;;;;;;;4.10;1.80;;;23.60;52.80;;;;;;5053829;28;20171;-69
2022/07/30 12:13:35;;;;;;;2.20;1.80;;;23.60;52.60;;;;;;5054347;28;20660;-69
2022/07/30 12:16:05;;;;;;;3.45;1.55;;;23.60;52.40;;;;;;5053928;28;20183;-69
2022/07/30 12:18:31;;;;;;;4.25;1.92;;;23.50;52.30;;;;;;5036611;28;20246;-69
2022/07/30 12:20:59;;;;;;;5.57;1.85;;;23.60;52.10;;;;;;5054166;28;20728;-58
2022/07/30 12:23:25;;;;;;;5.47;1.75;;;23.50;52.10;;;;;;5054432;28;20183;-57
2022/07/30 12:25:50;;;;;;;4.15;1.70;;;23.50;52.30;;;;;;5053298;28;20171;-57
2022/07/30 12:28:24;;;;;;;3.88;2.17;;;23.50;52.60;;;;;;5054127;28;20203;-55
2022/07/30 12:30:51;;;;;;;3.80;1.60;;;23.60;52.70;;;;;;5053937;28;20775;-56
2022/07/30 12:33:16;;;;;;;5.60;1.70;;;23.50;52.70;;;;;;5053707;28;20232;-55
2022/07/30 12:35:43;;;;;;;4.30;1.50;;;23.50;52.70;;;;;;5054040;28;20219;-57
2022/07/30 12:38:09;;;;;;;2.95;1.40;;;23.50;52.90;;;;;;5053994;28;20651;-58
2022/07/30 12:41:09;;;;;;;3.85;1.70;;;23.50;53.00;;;;;;5053411;28;20254;-58
2022/07/30 12:43:47;;;;;;;3.08;1.38;;;23.50;52.90;;;;;;5053168;28;20179;-58
2022/07/30 12:46:15;;;;;;;1.48;1.38;;;23.50;53.10;;;;;;5053216;28;20266;-54
2022/07/30 12:48:57;;;;;;;1.83;1.25;;;23.60;53.20;;;;;;5053735;28;20172;-53
2022/07/30 12:51:24;;;;;;;3.30;1.58;;;23.60;53.20;;;;;;5053868;28;20175;-56
2022/07/30 12:53:49;;;;;;;3.42;1.60;;;23.50;53.10;;;;;;5052699;28;20211;-54
2022/07/30 12:56:17;;;;;;;1.83;1.50;;;23.50;53.20;;;;;;5053752;28;20186;-57